sensor_id;sensor_type;location;lat;lon;timestamp;pressure;altitude;pressure_sealevel;temperature;humidity
74627;BME280;63132;52.268;5.192;2023-04-03T14:18:35;103039.09;;;8.12;35.73
74627;BME280;63132;52.268;5.192;2023-04-03T14:21:02;103026.09;;;8.04;35.00
74627;BME280;63132;52.268;5.192;2023-04-03T14:23:27;103018.38;;;7.98;35.31
74627;BME280;63132;52.268;5.192;2023-04-03T14:25:53;103018.19;;;8.02;36.50
74627;BME280;63132;52.268;5.192;2023-04-03T14:28:22;103014.22;;;8.16;36.25
74627;BME280;63132;52.268;5.192;2023-04-03T14:30:49;103018.31;;;7.99;35.09
74627;BME280;63132;52.268;5.192;2023-04-03T14:33:20;103006.19;;;8.17;36.14
74627;BME280;63132;52.268;5.192;2023-04-03T14:35:47;103011.09;;;8.30;36.29
74627;BME280;63132;52.268;5.192;2023-04-03T14:38:38;103027.66;;;8.11;36.09
74627;BME280;63132;52.268;5.192;2023-04-03T14:41:04;103014.00;;;8.22;36.85
74627;BME280;63132;52.268;5.192;2023-04-03T14:43:29;103007.72;;;8.25;37.43
74627;BME280;63132;52.268;5.192;2023-04-03T14:45:55;103007.84;;;8.22;38.38
74627;BME280;63132;52.268;5.192;2023-04-03T14:48:24;103013.63;;;8.33;37.63
74627;BME280;63132;52.268;5.192;2023-04-03T14:50:51;103018.63;;;7.90;36.01
74627;BME280;63132;52.268;5.192;2023-04-03T14:53:18;103013.81;;;8.01;36.29
74627;BME280;63132;52.268;5.192;2023-04-03T14:55:48;103005.75;;;8.04;36.46
74627;BME280;63132;52.268;5.192;2023-04-03T14:58:16;103021.09;;;7.94;34.92
74627;BME280;63132;52.268;5.192;2023-04-03T15:00:43;103009.59;;;7.96;35.04
74627;BME280;63132;52.268;5.192;2023-04-03T15:03:19;103021.72;;;8.03;35.19
74627;BME280;63132;52.268;5.192;2023-04-03T15:05:46;103026.22;;;8.01;35.53
74627;BME280;63132;52.268;5.192;2023-04-03T15:08:24;103028.81;;;8.02;35.24
74627;BME280;63132;52.268;5.192;2023-04-03T15:10:51;103021.41;;;8.12;35.62
74627;BME280;63132;52.268;5.192;2023-04-03T15:13:18;103018.00;;;8.09;34.78
74627;BME280;63132;52.268;5.192;2023-04-03T15:15:44;103021.84;;;8.00;34.72
74627;BME280;63132;52.268;5.192;2023-04-03T15:18:24;103001.72;;;7.92;36.31
74627;BME280;63132;52.268;5.192;2023-04-03T15:20:54;102999.44;;;8.09;37.49
74627;BME280;63132;52.268;5.192;2023-04-03T15:23:20;103006.44;;;8.11;36.58
74627;BME280;63132;52.268;5.192;2023-04-03T15:25:51;103010.38;;;8.25;36.90
74627;BME280;63132;52.268;5.192;2023-04-03T15:30:54;103016.22;;;8.09;37.51
74627;BME280;63132;52.268;5.192;2023-04-03T15:33:19;103011.13;;;8.03;36.23
74627;BME280;63132;52.268;5.192;2023-04-03T15:35:45;103004.50;;;8.16;37.48
74627;BME280;63132;52.268;5.192;2023-04-03T15:38:10;103003.28;;;8.00;35.42
74627;BME280;63132;52.268;5.192;2023-04-03T15:40:36;102998.31;;;7.89;36.35
74627;BME280;63132;52.268;5.192;2023-04-03T15:43:02;103003.47;;;7.93;37.01
74627;BME280;63132;52.268;5.192;2023-04-03T15:45:29;103008.53;;;8.01;37.04
74627;BME280;63132;52.268;5.192;2023-04-03T15:47:56;103012.19;;;7.97;35.96
74627;BME280;63132;52.268;5.192;2023-04-03T15:50:21;103006.19;;;7.92;37.31
74627;BME280;63132;52.268;5.192;2023-04-03T15:52:49;103015.16;;;7.88;37.43
74627;BME280;63132;52.268;5.192;2023-04-03T15:55:22;103010.16;;;7.78;36.50
74627;BME280;63132;52.268;5.192;2023-04-03T15:57:47;103008.91;;;7.90;37.07
74627;BME280;63132;52.268;5.192;2023-04-03T16:00:14;103006.25;;;7.90;37.17
74627;BME280;63132;52.268;5.192;2023-04-03T16:02:40;103012.84;;;7.77;37.40
74627;BME280;63132;52.268;5.192;2023-04-03T16:05:06;103016.91;;;7.87;37.99
74627;BME280;63132;52.268;5.192;2023-04-03T16:07:32;103014.91;;;7.96;39.27
74627;BME280;63132;52.268;5.192;2023-04-03T16:09:57;103017.13;;;7.81;37.18
74627;BME280;63132;52.268;5.192;2023-04-03T16:12:23;103019.50;;;7.90;37.88
74627;BME280;63132;52.268;5.192;2023-04-03T16:14:48;103011.28;;;7.71;37.83
74627;BME280;63132;52.268;5.192;2023-04-03T16:17:14;103008.09;;;7.87;38.50
74627;BME280;63132;52.268;5.192;2023-04-03T16:19:39;103008.97;;;7.87;39.88
74627;BME280;63132;52.268;5.192;2023-04-03T16:22:05;103005.19;;;7.94;40.33
74627;BME280;63132;52.268;5.192;2023-04-03T16:24:30;103011.38;;;7.95;38.86
74627;BME280;63132;52.268;5.192;2023-04-03T16:26:57;103007.25;;;7.86;38.16
74627;BME280;63132;52.268;5.192;2023-04-03T16:29:23;103010.03;;;7.81;39.07
74627;BME280;63132;52.268;5.192;2023-04-03T16:31:48;103005.94;;;8.00;40.52
74627;BME280;63132;52.268;5.192;2023-04-03T16:34:14;102999.53;;;8.82;37.00
74627;BME280;63132;52.268;5.192;2023-04-03T16:36:39;102996.47;;;10.89;33.66
74627;BME280;63132;52.268;5.192;2023-04-03T16:39:05;102991.09;;;12.87;30.95
74627;BME280;63132;52.268;5.192;2023-04-03T16:41:30;102995.44;;;13.55;29.08
74627;BME280;63132;52.268;5.192;2023-04-03T16:43:55;103009.41;;;13.28;28.80
74627;BME280;63132;52.268;5.192;2023-04-03T16:46:21;102997.34;;;13.36;29.06
74627;BME280;63132;52.268;5.192;2023-04-03T16:48:46;102997.25;;;14.01;27.57
74627;BME280;63132;52.268;5.192;2023-04-03T16:51:12;102996.91;;;13.60;28.37
74627;BME280;63132;52.268;5.192;2023-04-03T16:53:38;102988.47;;;14.28;28.78
74627;BME280;63132;52.268;5.192;2023-04-03T16:56:03;102989.56;;;14.84;27.64
74627;BME280;63132;52.268;5.192;2023-04-03T16:58:29;102990.47;;;13.79;27.81
74627;BME280;63132;52.268;5.192;2023-04-03T17:00:54;102994.56;;;12.73;30.07
74627;BME280;63132;52.268;5.192;2023-04-03T17:03:20;102995.78;;;12.50;30.27
74627;BME280;63132;52.268;5.192;2023-04-03T17:05:46;102988.16;;;12.76;31.29
74627;BME280;63132;52.268;5.192;2023-04-03T17:08:12;102989.56;;;13.16;30.36
74627;BME280;63132;52.268;5.192;2023-04-03T17:10:38;102989.97;;;12.41;30.61
74627;BME280;63132;52.268;5.192;2023-04-03T17:13:04;102984.41;;;12.28;30.78
74627;BME280;63132;52.268;5.192;2023-04-03T17:15:29;102996.53;;;11.07;33.40
74627;BME280;63132;52.268;5.192;2023-04-03T17:17:55;102992.66;;;10.34;34.66
74627;BME280;63132;52.268;5.192;2023-04-03T17:20:20;102997.91;;;9.26;36.17
74627;BME280;63132;52.268;5.192;2023-04-03T17:22:46;102988.38;;;8.74;37.70
74627;BME280;63132;52.268;5.192;2023-04-03T17:25:11;102993.13;;;8.38;39.48
74627;BME280;63132;52.268;5.192;2023-04-03T17:27:38;103012.13;;;7.99;39.73
74627;BME280;63132;52.268;5.192;2023-04-03T17:30:04;103007.94;;;7.64;40.72
74627;BME280;63132;52.268;5.192;2023-04-03T17:32:30;103008.00;;;7.34;42.00
74627;BME280;63132;52.268;5.192;2023-04-03T17:34:55;103008.66;;;7.10;42.13
74627;BME280;63132;52.268;5.192;2023-04-03T17:37:21;103013.00;;;6.83;42.36
74627;BME280;63132;52.268;5.192;2023-04-03T17:39:46;103018.97;;;6.58;42.51
74627;BME280;63132;52.268;5.192;2023-04-03T17:42:12;103008.91;;;6.39;42.85
74627;BME280;63132;52.268;5.192;2023-04-03T17:44:37;103015.56;;;6.19;43.14
74627;BME280;63132;52.268;5.192;2023-04-03T17:47:02;103024.56;;;6.12;43.62
74627;BME280;63132;52.268;5.192;2023-04-03T17:49:28;103025.59;;;6.04;44.58
74627;BME280;63132;52.268;5.192;2023-04-03T17:51:53;103025.03;;;5.91;45.38
74627;BME280;63132;52.268;5.192;2023-04-03T17:54:19;103025.47;;;5.73;45.23
74627;BME280;63132;52.268;5.192;2023-04-03T17:56:44;103023.75;;;5.70;46.21
74627;BME280;63132;52.268;5.192;2023-04-03T17:59:13;103025.88;;;5.55;45.50
74627;BME280;63132;52.268;5.192;2023-04-03T18:01:38;103030.41;;;5.49;45.87
74627;BME280;63132;52.268;5.192;2023-04-03T18:04:04;103029.69;;;5.40;46.55
74627;BME280;63132;52.268;5.192;2023-04-03T18:06:47;103030.53;;;5.44;45.55
74627;BME280;63132;52.268;5.192;2023-04-03T18:09:16;103024.94;;;5.17;46.92
74627;BME280;63132;52.268;5.192;2023-04-03T18:11:43;103017.38;;;5.00;47.92
74627;BME280;63132;52.268;5.192;2023-04-03T18:14:09;103024.28;;;5.05;47.72
74627;BME280;63132;52.268;5.192;2023-04-03T18:16:35;103023.63;;;4.94;48.09
74627;BME280;63132;52.268;5.192;2023-04-03T18:19:00;103015.75;;;4.92;47.65
74627;BME280;63132;52.268;5.192;2023-04-03T18:21:26;103026.50;;;4.81;48.56
74627;BME280;63132;52.268;5.192;2023-04-03T18:23:53;103024.22;;;4.62;48.86
74627;BME280;63132;52.268;5.192;2023-04-03T18:26:21;103023.50;;;4.53;49.93
74627;BME280;63132;52.268;5.192;2023-04-03T18:28:53;103026.34;;;4.42;50.00
74627;BME280;63132;52.268;5.192;2023-04-03T18:31:21;103023.91;;;4.31;50.54
74627;BME280;63132;52.268;5.192;2023-04-03T18:33:49;103029.22;;;4.29;50.92
74627;BME280;63132;52.268;5.192;2023-04-03T18:36:18;103029.66;;;4.02;51.33
74627;BME280;63132;52.268;5.192;2023-04-03T18:38:43;103034.00;;;4.05;51.50
74627;BME280;63132;52.268;5.192;2023-04-03T18:41:08;103032.47;;;3.90;51.49
74627;BME280;63132;52.268;5.192;2023-04-03T18:43:34;103032.59;;;3.82;52.24
74627;BME280;63132;52.268;5.192;2023-04-03T18:46:00;103031.06;;;3.67;53.02
74627;BME280;63132;52.268;5.192;2023-04-03T18:48:26;103031.75;;;3.80;51.98
74627;BME280;63132;52.268;5.192;2023-04-03T18:50:51;103037.16;;;3.69;52.71
74627;BME280;63132;52.268;5.192;2023-04-03T18:53:16;103034.78;;;3.52;53.47
74627;BME280;63132;52.268;5.192;2023-04-03T18:55:42;103040.88;;;3.55;52.48
74627;BME280;63132;52.268;5.192;2023-04-03T18:58:07;103047.28;;;3.36;53.61
74627;BME280;63132;52.268;5.192;2023-04-03T19:00:33;103049.94;;;3.36;53.27
74627;BME280;63132;52.268;5.192;2023-04-03T19:02:58;103047.47;;;3.22;55.42
74627;BME280;63132;52.268;5.192;2023-04-03T19:05:24;103041.31;;;3.21;54.27
74627;BME280;63132;52.268;5.192;2023-04-03T19:07:52;103041.25;;;3.27;54.35
74627;BME280;63132;52.268;5.192;2023-04-03T19:10:18;103041.47;;;3.10;55.89
74627;BME280;63132;52.268;5.192;2023-04-03T19:12:49;103042.47;;;3.00;57.42
74627;BME280;63132;52.268;5.192;2023-04-03T19:15:17;103045.97;;;2.99;57.89
74627;BME280;63132;52.268;5.192;2023-04-03T19:17:43;103046.91;;;2.93;56.39
74627;BME280;63132;52.268;5.192;2023-04-03T19:20:09;103040.78;;;2.91;56.26
74627;BME280;63132;52.268;5.192;2023-04-03T19:22:35;103048.88;;;2.74;58.75
74627;BME280;63132;52.268;5.192;2023-04-03T19:25:01;103038.41;;;2.69;59.16
74627;BME280;63132;52.268;5.192;2023-04-03T19:27:27;103033.75;;;2.94;56.43
74627;BME280;63132;52.268;5.192;2023-04-03T19:29:52;103034.94;;;2.67;58.52
74627;BME280;63132;52.268;5.192;2023-04-03T19:32:18;103040.25;;;2.60;59.95
74627;BME280;63132;52.268;5.192;2023-04-03T19:34:43;103045.63;;;2.50;60.98
74627;BME280;63132;52.268;5.192;2023-04-03T19:37:08;103043.06;;;2.40;63.00
74627;BME280;63132;52.268;5.192;2023-04-03T19:39:36;103044.88;;;2.32;64.17
74627;BME280;63132;52.268;5.192;2023-04-03T19:42:03;103043.28;;;2.15;64.78
74627;BME280;63132;52.268;5.192;2023-04-03T19:44:30;103039.84;;;2.05;64.65
74627;BME280;63132;52.268;5.192;2023-04-03T19:47:00;103038.13;;;1.99;63.85
74627;BME280;63132;52.268;5.192;2023-04-03T19:49:26;103038.13;;;2.01;64.18
74627;BME280;63132;52.268;5.192;2023-04-03T19:51:52;103044.28;;;1.95;65.16
74627;BME280;63132;52.268;5.192;2023-04-03T19:54:18;103042.56;;;1.93;66.48
74627;BME280;63132;52.268;5.192;2023-04-03T19:56:44;103046.13;;;1.84;66.77
74627;BME280;63132;52.268;5.192;2023-04-03T19:59:09;103044.44;;;1.73;66.96
74627;BME280;63132;52.268;5.192;2023-04-03T20:01:35;103048.84;;;1.71;66.66
74627;BME280;63132;52.268;5.192;2023-04-03T20:04:00;103060.22;;;1.72;66.79
74627;BME280;63132;52.268;5.192;2023-04-03T20:06:27;103059.34;;;1.70;66.10
74627;BME280;63132;52.268;5.192;2023-04-03T20:08:52;103067.16;;;1.79;63.80
74627;BME280;63132;52.268;5.192;2023-04-03T20:11:18;103061.81;;;1.93;61.73
74627;BME280;63132;52.268;5.192;2023-04-03T20:13:48;103069.69;;;1.96;61.99
74627;BME280;63132;52.268;5.192;2023-04-03T20:16:14;103067.97;;;1.89;63.42
74627;BME280;63132;52.268;5.192;2023-04-03T20:18:39;103061.00;;;1.80;66.11
74627;BME280;63132;52.268;5.192;2023-04-03T20:21:06;103066.28;;;1.74;66.20
74627;BME280;63132;52.268;5.192;2023-04-03T20:23:32;103068.97;;;1.63;67.35
74627;BME280;63132;52.268;5.192;2023-04-03T20:25:59;103060.28;;;1.53;66.61
74627;BME280;63132;52.268;5.192;2023-04-03T20:28:25;103062.06;;;1.52;67.65
74627;BME280;63132;52.268;5.192;2023-04-03T20:30:52;103064.69;;;1.46;68.44
74627;BME280;63132;52.268;5.192;2023-04-03T20:33:21;103055.13;;;1.40;68.72
74627;BME280;63132;52.268;5.192;2023-04-03T20:35:47;103057.78;;;1.29;69.05
74627;BME280;63132;52.268;5.192;2023-04-03T20:38:13;103054.31;;;1.21;69.69
74627;BME280;63132;52.268;5.192;2023-04-03T20:40:39;103046.47;;;1.20;69.89
74627;BME280;63132;52.268;5.192;2023-04-03T20:43:05;103050.88;;;1.06;70.22
74627;BME280;63132;52.268;5.192;2023-04-03T20:45:31;103045.66;;;0.97;70.33
74627;BME280;63132;52.268;5.192;2023-04-03T20:47:58;103046.53;;;0.98;70.74
74627;BME280;63132;52.268;5.192;2023-04-03T20:50:27;103040.41;;;0.94;71.75
74627;BME280;63132;52.268;5.192;2023-04-03T20:52:53;103049.19;;;0.80;70.95
74627;BME280;63132;52.268;5.192;2023-04-03T20:55:19;103044.84;;;0.73;71.45
74627;BME280;63132;52.268;5.192;2023-04-03T20:57:44;103044.84;;;0.76;72.09
74627;BME280;63132;52.268;5.192;2023-04-03T21:00:10;103050.97;;;0.67;73.12
74627;BME280;63132;52.268;5.192;2023-04-03T21:02:38;103052.72;;;0.61;72.48
74627;BME280;63132;52.268;5.192;2023-04-03T21:05:04;103066.69;;;0.66;71.47
74627;BME280;63132;52.268;5.192;2023-04-03T21:19:13;103059.72;;;0.55;73.28
74627;BME280;63132;52.268;5.192;2023-04-03T21:21:40;103058.84;;;0.53;73.01
74627;BME280;63132;52.268;5.192;2023-04-03T21:24:08;103060.59;;;0.48;72.69
74627;BME280;63132;52.268;5.192;2023-04-03T21:26:36;103053.59;;;0.49;72.60
74627;BME280;63132;52.268;5.192;2023-04-03T21:29:02;103065.84;;;0.51;73.76
74627;BME280;63132;52.268;5.192;2023-04-03T21:34:15;103058.84;;;0.41;73.28
74627;BME280;63132;52.268;5.192;2023-04-03T21:36:41;103063.25;;;0.32;72.88
74627;BME280;63132;52.268;5.192;2023-04-03T21:39:07;103054.50;;;0.30;73.50
74627;BME280;63132;52.268;5.192;2023-04-03T21:41:33;103053.63;;;0.41;70.98
74627;BME280;63132;52.268;5.192;2023-04-03T21:43:59;103052.75;;;0.53;71.27
74627;BME280;63132;52.268;5.192;2023-04-03T21:46:24;103060.59;;;0.45;72.85
74627;BME280;63132;52.268;5.192;2023-04-03T21:48:50;103062.34;;;0.37;73.65
74627;BME280;63132;52.268;5.192;2023-04-03T21:51:15;103051.88;;;0.33;73.73
74627;BME280;63132;52.268;5.192;2023-04-03T21:53:41;103052.75;;;0.29;73.48
74627;BME280;63132;52.268;5.192;2023-04-03T21:56:08;103050.13;;;0.28;73.61
74627;BME280;63132;52.268;5.192;2023-04-03T21:58:33;103047.50;;;0.23;74.90
74627;BME280;63132;52.268;5.192;2023-04-03T22:01:09;103046.63;;;0.18;74.29
74627;BME280;63132;52.268;5.192;2023-04-03T22:03:35;103053.63;;;0.14;73.36
74627;BME280;63132;52.268;5.192;2023-04-03T22:06:01;103048.41;;;0.19;73.84
74627;BME280;63132;52.268;5.192;2023-04-03T22:08:27;103047.53;;;0.17;74.68
74627;BME280;63132;52.268;5.192;2023-04-03T22:10:58;103044.88;;;0.14;74.95
74627;BME280;63132;52.268;5.192;2023-04-03T22:13:23;103041.41;;;0.16;75.18
74627;BME280;63132;52.268;5.192;2023-04-03T22:15:48;103044.00;;;0.11;75.09
74627;BME280;63132;52.268;5.192;2023-04-03T22:18:14;103040.53;;;0.19;72.79
74627;BME280;63132;52.268;5.192;2023-04-03T22:20:42;103025.69;;;0.11;73.23
74627;BME280;63132;52.268;5.192;2023-04-03T22:23:07;103030.94;;;0.15;73.83
74627;BME280;63132;52.268;5.192;2023-04-03T22:25:33;103023.94;;;0.04;74.41
74627;BME280;63132;52.268;5.192;2023-04-03T22:27:58;103023.94;;;0.12;74.70
74627;BME280;63132;52.268;5.192;2023-04-03T22:30:24;103021.31;;;0.14;74.09
74627;BME280;63132;52.268;5.192;2023-04-03T22:32:49;103018.72;;;-0.01;74.70
74627;BME280;63132;52.268;5.192;2023-04-03T22:35:15;103021.31;;;0.03;73.76
74627;BME280;63132;52.268;5.192;2023-04-03T22:37:40;103017.84;;;0.07;73.19
74627;BME280;63132;52.268;5.192;2023-04-03T22:40:06;103023.06;;;0.10;71.84
74627;BME280;63132;52.268;5.192;2023-04-03T22:42:32;103021.34;;;0.07;71.99
74627;BME280;63132;52.268;5.192;2023-04-03T22:44:57;103017.81;;;0.29;69.71
74627;BME280;63132;52.268;5.192;2023-04-03T22:47:23;103012.59;;;0.32;69.78
74627;BME280;63132;52.268;5.192;2023-04-03T22:49:48;103011.75;;;0.27;70.69
74627;BME280;63132;52.268;5.192;2023-04-03T22:52:14;103019.59;;;0.14;72.07
74627;BME280;63132;52.268;5.192;2023-04-03T22:54:39;103018.72;;;0.18;70.01
74627;BME280;63132;52.268;5.192;2023-04-03T22:57:05;103013.47;;;0.21;71.09
74627;BME280;63132;52.268;5.192;2023-04-03T22:59:30;103013.47;;;0.14;73.19
74627;BME280;63132;52.268;5.192;2023-04-03T23:01:56;103018.69;;;0.04;73.60
74627;BME280;63132;52.268;5.192;2023-04-03T23:04:22;103027.44;;;-0.08;73.91
74627;BME280;63132;52.268;5.192;2023-04-03T23:06:48;103034.41;;;0.09;72.79
74627;BME280;63132;52.268;5.192;2023-04-03T23:09:14;103032.66;;;-0.03;71.29
74627;BME280;63132;52.268;5.192;2023-04-03T23:11:39;103028.31;;;-0.03;71.90
74627;BME280;63132;52.268;5.192;2023-04-03T23:14:04;103036.16;;;0.07;71.15
74627;BME280;63132;52.268;5.192;2023-04-03T23:16:30;103033.56;;;0.24;69.90
74627;BME280;63132;52.268;5.192;2023-04-03T23:18:55;103037.03;;;0.26;69.69
74627;BME280;63132;52.268;5.192;2023-04-03T23:21:21;103040.53;;;0.23;70.17
74627;BME280;63132;52.268;5.192;2023-04-03T23:23:47;103050.97;;;0.17;70.24
74627;BME280;63132;52.268;5.192;2023-04-03T23:26:12;103043.16;;;0.36;69.73
74627;BME280;63132;52.268;5.192;2023-04-03T23:28:38;103046.63;;;0.27;69.94
74627;BME280;63132;52.268;5.192;2023-04-03T23:31:05;103044.91;;;0.32;69.99
74627;BME280;63132;52.268;5.192;2023-04-03T23:33:36;103052.75;;;0.26;70.06
74627;BME280;63132;52.268;5.192;2023-04-03T23:36:06;103049.25;;;0.24;70.21
74627;BME280;63132;52.268;5.192;2023-04-03T23:38:32;103049.25;;;0.24;70.90
74627;BME280;63132;52.268;5.192;2023-04-03T23:40:57;103046.63;;;0.10;70.88
74627;BME280;63132;52.268;5.192;2023-04-03T23:43:23;103042.25;;;0.06;71.64
74627;BME280;63132;52.268;5.192;2023-04-03T23:45:48;103044.88;;;0.03;72.01
74627;BME280;63132;52.268;5.192;2023-04-03T23:48:14;103041.38;;;-0.14;72.52
74627;BME280;63132;52.268;5.192;2023-04-03T23:50:39;103044.00;;;-0.09;73.50
74627;BME280;63132;52.268;5.192;2023-04-03T23:53:05;103049.22;;;-0.17;74.96
74627;BME280;63132;52.268;5.192;2023-04-03T23:55:31;103045.72;;;-0.19;72.85
74627;BME280;63132;52.268;5.192;2023-04-03T23:57:56;103047.44;;;-0.21;73.13
